Time;durP1;ratioP1;P1;durP2;ratioP2;P2;SDS_P1;SDS_P2;PMS_P1;PMS_P2;Temp;Humidity;BMP_temperature;BMP_pressure;BME280_temperature;BME280_humidity;BME280_pressure;Samples;Min_cycle;Max_cycle;Signal;HPM_P1;HPM_P2
2022/11/07 00:03:54;;;;;;;40.70;23.13;;;;;;;;;;13018566;22;20011;-80
2022/11/07 00:09:27;;;;;;;49.22;22.45;;;;;;;;;;13090153;22;20018;-70
2022/11/07 00:14:27;;;;;;;51.47;22.30;;;;;;;;;;13054162;22;20019;-76
2022/11/07 00:19:28;;;;;;;44.47;21.88;;;;;;;;;;13044197;22;20431;-76
2022/11/07 00:24:28;;;;;;;44.47;21.98;;;;;;;;;;13022444;22;20446;-74
2022/11/07 00:29:29;;;;;;;38.85;22.30;;;;;;;;;;13017116;22;20038;-74
2022/11/07 00:34:31;;;;;;;42.75;22.73;;;;;;;;;;13066158;22;19983;-76
2022/11/07 00:39:32;;;;;;;42.50;21.25;;;;;;;;;;13016273;22;20006;-80
2022/11/07 00:44:32;;;;;;;52.03;25.70;;;;;;;;;;13012382;22;20005;-76
2022/11/07 00:49:32;;;;;;;65.90;29.77;;;;;;;;;;12989843;22;20057;-79
2022/11/07 00:54:34;;;;;;;74.60;35.30;;;;;;;;;;13015450;22;19987;-73
2022/11/07 00:59:34;;;;;;;77.82;38.20;;;;;;;;;;13015172;22;20372;-79
2022/11/07 01:09:54;;;;;;;74.47;36.92;;;;;;;;;;13066540;22;19999;-76
2022/11/07 01:14:56;;;;;;;74.13;35.83;;;;;;;;;;13021817;22;19987;-75
2022/11/07 01:19:56;;;;;;;65.50;33.45;;;;;;;;;;13022516;22;19995;-74
2022/11/07 01:24:58;;;;;;;67.18;31.02;;;;;;;;;;13016418;22;20041;-82
2022/11/07 01:29:58;;;;;;;61.33;28.08;;;;;;;;;;13070967;22;20203;-75
2022/11/07 01:34:59;;;;;;;51.95;25.42;;;;;;;;;;13019191;22;20202;-77
2022/11/07 01:39:59;;;;;;;56.63;24.75;;;;;;;;;;13065696;22;19995;-76
2022/11/07 01:44:59;;;;;;;65.07;28.45;;;;;;;;;;13016113;22;19999;-79
2022/11/07 01:50:00;;;;;;;51.83;29.33;;;;;;;;;;13014514;22;20081;-74
2022/11/07 01:55:07;;;;;;;54.17;26.55;;;;;;;;;;13014042;22;20286;-80
2022/11/07 02:00:10;;;;;;;56.22;26.27;;;;;;;;;;13014483;22;20469;-74
2022/11/07 02:05:12;;;;;;;53.55;26.85;;;;;;;;;;13063249;22;19995;-75
2022/11/07 02:10:13;;;;;;;54.33;27.38;;;;;;;;;;13062668;22;20573;-74
2022/11/07 02:15:13;;;;;;;60.13;27.70;;;;;;;;;;13014344;22;20019;-83
2022/11/07 02:20:17;;;;;;;50.13;29.42;;;;;;;;;;13014333;22;20052;-78
2022/11/07 02:25:18;;;;;;;57.60;27.13;;;;;;;;;;13013890;22;20018;-77
2022/11/07 02:30:23;;;;;;;62.40;29.98;;;;;;;;;;13054378;22;20070;-73
2022/11/07 02:35:40;;;;;;;51.47;27.70;;;;;;;;;;13017590;22;20026;-74
2022/11/07 02:40:43;;;;;;;58.53;28.50;;;;;;;;;;13068978;22;19994;-76
2022/11/07 02:45:44;;;;;;;49.53;27.95;;;;;;;;;;13017416;22;20046;-77
2022/11/07 02:50:45;;;;;;;56.83;28.45;;;;;;;;;;13073574;22;20002;-77
2022/11/07 02:55:45;;;;;;;67.65;26.13;;;;;;;;;;13013555;22;20001;-81
2022/11/07 03:00:46;;;;;;;54.47;27.90;;;;;;;;;;13042356;22;20015;-80
2022/11/07 03:05:46;;;;;;;56.58;28.10;;;;;;;;;;13013594;22;20385;-79
2022/11/07 03:10:48;;;;;;;61.63;28.00;;;;;;;;;;13052255;22;20003;-77
2022/11/07 03:15:49;;;;;;;65.47;29.80;;;;;;;;;;13012596;22;19991;-80
2022/11/07 03:20:49;;;;;;;62.55;28.63;;;;;;;;;;13062202;22;19999;-77
2022/11/07 03:25:50;;;;;;;59.67;28.25;;;;;;;;;;13044830;22;20050;-82
2022/11/07 03:30:51;;;;;;;60.72;26.35;;;;;;;;;;13015845;22;20050;-74
2022/11/07 03:35:51;;;;;;;57.97;25.73;;;;;;;;;;13017135;22;20066;-75
2022/11/07 03:40:52;;;;;;;53.80;26.63;;;;;;;;;;13015326;22;20019;-78
2022/11/07 03:45:53;;;;;;;53.72;28.17;;;;;;;;;;13015835;22;20415;-74
2022/11/07 03:50:53;;;;;;;55.50;28.95;;;;;;;;;;13016441;22;20002;-77
2022/11/07 03:55:54;;;;;;;55.33;29.47;;;;;;;;;;13015841;22;20024;-79
2022/11/07 04:00:54;;;;;;;56.25;28.38;;;;;;;;;;13015356;22;20431;-74
2022/11/07 04:05:54;;;;;;;65.05;30.92;;;;;;;;;;13015609;22;20401;-79
2022/11/07 04:10:55;;;;;;;72.20;32.75;;;;;;;;;;13015745;22;20002;-81
2022/11/07 04:21:14;;;;;;;62.45;30.73;;;;;;;;;;13043455;22;20339;-76
2022/11/07 04:31:34;;;;;;;60.78;28.35;;;;;;;;;;13019674;22;20003;-75
2022/11/07 04:36:35;;;;;;;58.20;29.33;;;;;;;;;;13050305;22;20419;-77
2022/11/07 04:41:35;;;;;;;58.33;27.90;;;;;;;;;;13015572;22;20017;-78
2022/11/07 04:46:36;;;;;;;49.45;27.02;;;;;;;;;;13015118;22;19995;-74
2022/11/07 04:51:40;;;;;;;50.75;26.33;;;;;;;;;;13015974;22;19999;-85
2022/11/07 04:56:40;;;;;;;52.63;27.20;;;;;;;;;;13021426;22;20137;-77
2022/11/07 05:01:40;;;;;;;50.75;26.13;;;;;;;;;;13033978;22;20073;-75
2022/11/07 05:06:41;;;;;;;54.15;25.67;;;;;;;;;;13022749;22;19995;-75
2022/11/07 05:11:41;;;;;;;50.30;25.40;;;;;;;;;;13017723;22;19995;-81
2022/11/07 05:16:42;;;;;;;62.35;25.20;;;;;;;;;;13062871;22;20430;-75
2022/11/07 05:21:42;;;;;;;54.55;23.90;;;;;;;;;;13061935;22;19999;-76
2022/11/07 05:26:42;;;;;;;58.97;27.55;;;;;;;;;;13015259;22;20465;-76
2022/11/07 05:31:43;;;;;;;55.53;27.20;;;;;;;;;;13063046;22;20023;-78
2022/11/07 05:36:43;;;;;;;53.55;25.52;;;;;;;;;;13014790;22;19994;-80
2022/11/07 05:41:43;;;;;;;52.75;25.05;;;;;;;;;;13010845;22;20488;-74
2022/11/07 05:46:44;;;;;;;55.15;25.55;;;;;;;;;;13010133;22;20066;-81
2022/11/07 05:51:44;;;;;;;40.35;21.08;;;;;;;;;;13008111;22;20001;-76
2022/11/07 05:56:44;;;;;;;44.92;21.00;;;;;;;;;;13005887;22;20002;-76
2022/11/07 06:01:45;;;;;;;53.65;23.98;;;;;;;;;;13038421;22;20560;-77
2022/11/07 06:06:45;;;;;;;50.20;24.55;;;;;;;;;;13060552;22;19987;-84
2022/11/07 06:11:45;;;;;;;51.55;24.20;;;;;;;;;;13012692;22;20080;-75
2022/11/07 06:16:46;;;;;;;43.90;23.85;;;;;;;;;;13013883;22;20442;-75
2022/11/07 06:21:46;;;;;;;46.75;25.98;;;;;;;;;;13013311;22;19995;-78
2022/11/07 06:26:46;;;;;;;47.63;27.15;;;;;;;;;;13012651;22;19995;-78
2022/11/07 06:31:47;;;;;;;48.85;26.48;;;;;;;;;;13012489;22;19995;-76
2022/11/07 06:36:51;;;;;;;57.08;27.50;;;;;;;;;;13012863;22;19984;-79
2022/11/07 06:41:51;;;;;;;59.00;29.02;;;;;;;;;;12940870;22;20043;-75
2022/11/07 06:46:51;;;;;;;61.42;28.00;;;;;;;;;;12948995;22;19988;-81
2022/11/07 06:51:52;;;;;;;56.42;29.67;;;;;;;;;;12947730;22;19995;-81
2022/11/07 06:56:52;;;;;;;66.83;26.50;;;;;;;;;;12949595;22;19991;-76
2022/11/07 07:01:52;;;;;;;57.80;26.15;;;;;;;;;;12949074;22;20003;-78
2022/11/07 07:06:52;;;;;;;57.63;25.80;;;;;;;;;;12949474;22;20453;-76
2022/11/07 07:11:53;;;;;;;54.83;23.83;;;;;;;;;;12923382;22;19999;-79
2022/11/07 07:16:53;;;;;;;62.75;26.48;;;;;;;;;;12950180;22;19996;-77
2022/11/07 07:21:53;;;;;;;56.80;26.23;;;;;;;;;;12998842;22;20431;-79
2022/11/07 07:26:53;;;;;;;53.17;28.38;;;;;;;;;;12949871;22;19992;-79
2022/11/07 07:31:54;;;;;;;60.85;29.17;;;;;;;;;;12934806;22;20325;-78
2022/11/07 07:36:54;;;;;;;59.25;30.13;;;;;;;;;;12954953;22;20396;-74
2022/11/07 07:41:54;;;;;;;60.53;28.10;;;;;;;;;;12964807;22;20019;-74
2022/11/07 07:46:54;;;;;;;63.67;31.10;;;;;;;;;;12974689;22;19988;-76
2022/11/07 07:51:54;;;;;;;67.30;28.48;;;;;;;;;;12951801;22;20071;-77
2022/11/07 07:56:56;;;;;;;59.35;29.58;;;;;;;;;;12976914;22;20526;-77
2022/11/07 08:01:56;;;;;;;71.13;30.23;;;;;;;;;;12949267;22;20081;-78
2022/11/07 08:06:56;;;;;;;79.95;30.95;;;;;;;;;;12949698;22;19991;-77
2022/11/07 08:11:56;;;;;;;59.47;27.63;;;;;;;;;;12952604;22;20483;-80
2022/11/07 08:16:57;;;;;;;68.47;27.40;;;;;;;;;;12952832;22;20423;-83
2022/11/07 08:21:57;;;;;;;59.30;26.38;;;;;;;;;;12953032;22;20401;-81
2022/11/07 08:26:58;;;;;;;62.97;27.85;;;;;;;;;;12952515;22;19996;-80
2022/11/07 08:31:58;;;;;;;52.63;24.25;;;;;;;;;;12952316;22;19996;-76
2022/11/07 08:36:58;;;;;;;52.65;23.98;;;;;;;;;;12974176;22;20446;-82
2022/11/07 08:41:58;;;;;;;51.60;21.42;;;;;;;;;;12843870;22;20021;-75
2022/11/07 08:46:59;;;;;;;53.83;22.35;;;;;;;;;;12852379;23;20009;-81
2022/11/07 08:52:00;;;;;;;47.85;24.02;;;;;;;;;;12873997;23;19997;-74
2022/11/07 08:57:00;;;;;;;51.13;23.17;;;;;;;;;;12851505;23;19989;-81
2022/11/07 09:02:00;;;;;;;51.45;25.08;;;;;;;;;;12851394;23;19997;-76
2022/11/07 09:07:00;;;;;;;59.57;24.27;;;;;;;;;;12851279;23;20028;-81
2022/11/07 09:12:02;;;;;;;48.00;23.63;;;;;;;;;;12851439;23;20008;-80
2022/11/07 09:17:02;;;;;;;48.42;22.48;;;;;;;;;;12851047;23;19989;-76
2022/11/07 09:22:03;;;;;;;48.25;21.00;;;;;;;;;;12873058;23;19992;-81
2022/11/07 09:27:03;;;;;;;39.97;19.55;;;;;;;;;;12851094;23;20028;-77
2022/11/07 09:32:03;;;;;;;55.72;23.48;;;;;;;;;;12872902;23;20008;-79
2022/11/07 09:37:03;;;;;;;40.90;18.42;;;;;;;;;;12852314;23;20043;-80
2022/11/07 09:42:22;;;;;;;46.90;20.55;;;;;;;;;;12850539;23;20044;-75
2022/11/07 09:47:26;;;;;;;38.03;17.80;;;;;;;;;;12850472;23;20072;-76
2022/11/07 09:52:44;;;;;;;36.08;18.48;;;;;;;;;;12849749;23;20357;-76
2022/11/07 09:57:46;;;;;;;35.72;17.73;;;;;;;;;;12850562;23;20361;-81
2022/11/07 10:02:54;;;;;;;36.08;18.08;;;;;;;;;;12873024;23;20082;-77
2022/11/07 10:07:54;;;;;;;30.03;15.97;;;;;;;;;;12861344;23;20000;-76
2022/11/07 10:12:54;;;;;;;34.72;17.00;;;;;;;;;;12852237;23;20003;-77
2022/11/07 10:17:58;;;;;;;27.63;14.25;;;;;;;;;;12850431;23;20436;-82
2022/11/07 10:23:07;;;;;;;31.85;14.85;;;;;;;;;;12850297;23;19989;-75
2022/11/07 10:28:07;;;;;;;23.98;13.43;;;;;;;;;;12851747;23;20020;-79
2022/11/07 10:33:26;;;;;;;21.73;12.23;;;;;;;;;;12851721;23;19997;-74
2022/11/07 10:38:28;;;;;;;20.00;11.40;;;;;;;;;;12884084;22;20027;-74
2022/11/07 10:43:32;;;;;;;19.88;9.73;;;;;;;;;;12956339;22;20002;-76
2022/11/07 10:48:33;;;;;;;21.95;8.80;;;;;;;;;;12984579;22;20011;-75
2022/11/07 10:53:41;;;;;;;21.92;9.27;;;;;;;;;;12960362;22;20079;-76
2022/11/07 10:58:42;;;;;;;14.38;8.20;;;;;;;;;;12956188;22;19996;-82
2022/11/07 11:03:48;;;;;;;19.17;8.82;;;;;;;;;;12987984;22;19988;-82
2022/11/07 11:08:50;;;;;;;21.90;9.57;;;;;;;;;;12950017;22;20467;-77
2022/11/07 11:14:01;;;;;;;20.27;8.63;;;;;;;;;;12949572;22;20088;-78
2022/11/07 11:19:01;;;;;;;16.20;8.45;;;;;;;;;;12950095;22;19996;-81
2022/11/07 11:24:10;;;;;;;13.60;7.45;;;;;;;;;;12970565;22;19994;-75
2022/11/07 11:29:23;;;;;;;17.35;7.70;;;;;;;;;;12952395;22;20000;-78
2022/11/07 11:34:42;;;;;;;19.00;8.13;;;;;;;;;;12949278;22;20482;-75
2022/11/07 11:39:42;;;;;;;26.15;10.07;;;;;;;;;;12948832;22;20047;-75
2022/11/07 11:44:44;;;;;;;24.05;10.82;;;;;;;;;;12951629;22;20451;-80
2022/11/07 11:49:50;;;;;;;29.52;12.52;;;;;;;;;;12953635;22;20015;-80
2022/11/07 11:54:53;;;;;;;26.52;12.32;;;;;;;;;;12953424;22;20089;-80
2022/11/07 12:00:00;;;;;;;24.95;12.73;;;;;;;;;;12953376;22;19992;-75
2022/11/07 12:05:11;;;;;;;29.05;14.57;;;;;;;;;;13001458;22;19999;-81
2022/11/07 12:10:11;;;;;;;45.13;14.75;;;;;;;;;;12952719;22;20444;-75
2022/11/07 12:15:34;;;;;;;33.08;13.48;;;;;;;;;;13001117;22;20079;-76
2022/11/07 12:20:45;;;;;;;30.80;12.60;;;;;;;;;;12974138;22;20426;-81
2022/11/07 12:26:06;;;;;;;30.73;14.40;;;;;;;;;;12952802;22;19995;-80
2022/11/07 12:31:15;;;;;;;31.05;12.98;;;;;;;;;;12951504;22;20000;-74
2022/11/07 12:36:27;;;;;;;23.30;11.80;;;;;;;;;;12991690;22;20459;-75
2022/11/07 12:41:37;;;;;;;27.40;13.10;;;;;;;;;;12950200;22;20012;-77
2022/11/07 12:46:56;;;;;;;32.35;14.05;;;;;;;;;;13000499;22;19995;-75
2022/11/07 12:51:59;;;;;;;29.40;13.27;;;;;;;;;;13000256;22;20002;-77
2022/11/07 12:57:01;;;;;;;30.33;14.30;;;;;;;;;;12952223;22;19999;-74
2022/11/07 13:02:04;;;;;;;26.65;13.60;;;;;;;;;;12951721;22;20017;-75
2022/11/07 13:07:20;;;;;;;24.92;13.10;;;;;;;;;;12952180;22;20435;-81
2022/11/07 13:12:38;;;;;;;21.42;12.65;;;;;;;;;;12951398;22;20000;-75
2022/11/07 13:17:45;;;;;;;26.40;13.30;;;;;;;;;;12999446;22;19984;-78
2022/11/07 13:22:47;;;;;;;31.05;14.05;;;;;;;;;;12999519;22;20330;-75
2022/11/07 13:27:56;;;;;;;46.53;16.77;;;;;;;;;;12951528;22;19995;-78
2022/11/07 13:32:57;;;;;;;29.73;14.70;;;;;;;;;;12950752;22;20000;-75
2022/11/07 13:38:01;;;;;;;32.72;14.70;;;;;;;;;;12950816;22;20001;-76
2022/11/07 13:43:11;;;;;;;31.95;13.85;;;;;;;;;;12951397;22;20007;-79
2022/11/07 13:48:20;;;;;;;28.00;14.57;;;;;;;;;;12950189;22;20062;-77
2022/11/07 13:53:23;;;;;;;26.58;13.30;;;;;;;;;;12950723;22;19988;-76
2022/11/07 13:58:25;;;;;;;34.33;14.85;;;;;;;;;;12950050;22;20074;-76
2022/11/07 14:03:26;;;;;;;32.30;13.05;;;;;;;;;;12953565;22;19996;-79
2022/11/07 14:08:36;;;;;;;26.13;12.70;;;;;;;;;;12949803;22;20451;-80
2022/11/07 14:13:37;;;;;;;46.13;15.23;;;;;;;;;;12985077;22;19996;-81
2022/11/07 14:18:46;;;;;;;27.63;14.65;;;;;;;;;;12995401;22;19995;-77
2022/11/07 14:23:46;;;;;;;33.33;14.50;;;;;;;;;;12948555;22;20376;-76
2022/11/07 14:28:47;;;;;;;32.33;14.80;;;;;;;;;;12950608;22;20057;-74
2022/11/07 14:34:11;;;;;;;29.17;14.85;;;;;;;;;;12957457;22;20019;-75
2022/11/07 14:39:13;;;;;;;32.03;14.65;;;;;;;;;;12966465;22;20035;-75
2022/11/07 14:44:18;;;;;;;37.15;15.02;;;;;;;;;;12959340;22;20450;-76
2022/11/07 14:49:23;;;;;;;32.58;14.77;;;;;;;;;;12944439;22;20027;-72
2022/11/07 14:54:29;;;;;;;39.85;15.20;;;;;;;;;;12953728;22;19995;-75
2022/11/07 14:59:34;;;;;;;28.00;14.25;;;;;;;;;;12947924;22;19996;-75
2022/11/07 15:04:35;;;;;;;35.95;15.25;;;;;;;;;;12996375;22;19992;-75
2022/11/07 15:09:35;;;;;;;36.20;16.38;;;;;;;;;;12946651;22;19995;-77
2022/11/07 15:14:36;;;;;;;49.17;17.55;;;;;;;;;;12995973;22;19984;-78
2022/11/07 15:19:37;;;;;;;34.55;16.52;;;;;;;;;;12950723;22;20034;-79
2022/11/07 15:24:42;;;;;;;30.38;16.95;;;;;;;;;;12950422;22;19995;-75
2022/11/07 15:29:53;;;;;;;37.67;16.42;;;;;;;;;;12951698;22;20000;-77
2022/11/07 15:34:56;;;;;;;38.30;16.63;;;;;;;;;;12952891;22;20011;-83
2022/11/07 15:39:56;;;;;;;33.47;16.67;;;;;;;;;;12953262;22;20012;-76
2022/11/07 15:44:56;;;;;;;42.22;19.88;;;;;;;;;;12952207;22;20007;-76
2022/11/07 15:49:56;;;;;;;39.35;19.73;;;;;;;;;;12951726;22;20007;-77
2022/11/07 15:54:58;;;;;;;39.80;18.35;;;;;;;;;;12951724;22;20281;-79
2022/11/07 15:59:59;;;;;;;40.78;20.35;;;;;;;;;;12952133;22;20320;-78
2022/11/07 16:04:59;;;;;;;41.78;19.63;;;;;;;;;;12926224;22;20092;-76
2022/11/07 16:10:00;;;;;;;40.50;20.25;;;;;;;;;;12951792;22;20477;-75
2022/11/07 16:15:01;;;;;;;53.53;19.73;;;;;;;;;;12926303;22;20460;-74
2022/11/07 16:20:02;;;;;;;41.40;20.15;;;;;;;;;;12951563;22;20032;-77
2022/11/07 16:25:03;;;;;;;44.75;20.17;;;;;;;;;;12951127;22;20126;-75
2022/11/07 16:30:05;;;;;;;50.83;18.53;;;;;;;;;;13000002;22;20076;-75
2022/11/07 16:35:05;;;;;;;49.17;19.33;;;;;;;;;;12949772;22;20031;-77
2022/11/07 16:40:11;;;;;;;45.03;21.17;;;;;;;;;;12946570;22;20012;-81
2022/11/07 16:45:16;;;;;;;35.92;19.92;;;;;;;;;;12948698;22;20359;-78
2022/11/07 16:50:16;;;;;;;51.38;23.45;;;;;;;;;;12946597;22;20008;-80
2022/11/07 16:55:17;;;;;;;48.53;24.27;;;;;;;;;;12922015;22;19992;-77
2022/11/07 17:00:19;;;;;;;58.13;25.90;;;;;;;;;;12949478;22;20075;-76
2022/11/07 17:05:19;;;;;;;52.17;22.75;;;;;;;;;;12952180;22;19995;-74
2022/11/07 17:10:20;;;;;;;44.72;22.98;;;;;;;;;;12951186;22;20038;-78
2022/11/07 17:15:20;;;;;;;46.67;22.43;;;;;;;;;;12951216;22;20011;-77
2022/11/07 17:20:21;;;;;;;43.67;22.70;;;;;;;;;;12951717;22;20457;-76
2022/11/07 17:25:21;;;;;;;44.20;22.42;;;;;;;;;;12951254;22;19995;-75
2022/11/07 17:30:21;;;;;;;54.17;21.50;;;;;;;;;;12994393;22;20059;-73
2022/11/07 17:35:22;;;;;;;42.70;22.13;;;;;;;;;;12973710;22;19995;-73
2022/11/07 17:40:28;;;;;;;57.00;22.63;;;;;;;;;;13015360;22;20017;-70
2022/11/07 17:45:28;;;;;;;54.63;24.38;;;;;;;;;;13010862;22;20347;-77
2022/11/07 17:50:28;;;;;;;48.63;22.83;;;;;;;;;;13003835;22;20034;-78
2022/11/07 17:55:29;;;;;;;55.20;25.10;;;;;;;;;;12949581;22;19995;-73
2022/11/07 18:00:29;;;;;;;53.00;23.38;;;;;;;;;;12999300;22;20428;-76
2022/11/07 18:05:33;;;;;;;49.90;25.88;;;;;;;;;;12948427;22;20542;-75
2022/11/07 18:10:33;;;;;;;50.40;26.27;;;;;;;;;;12948631;22;19996;-74
2022/11/07 18:15:36;;;;;;;62.53;27.15;;;;;;;;;;12948684;22;20370;-76
2022/11/07 18:20:36;;;;;;;47.55;24.05;;;;;;;;;;12948598;22;20069;-75
2022/11/07 18:25:36;;;;;;;52.17;23.33;;;;;;;;;;12996823;22;19992;-78
2022/11/07 18:30:36;;;;;;;53.00;25.00;;;;;;;;;;12948512;22;19999;-77
2022/11/07 18:35:39;;;;;;;44.60;22.27;;;;;;;;;;12947328;22;19998;-76
2022/11/07 18:40:39;;;;;;;64.80;26.67;;;;;;;;;;12948015;22;20451;-80
2022/11/07 18:45:40;;;;;;;57.50;25.00;;;;;;;;;;12995531;22;20054;-73
2022/11/07 18:50:40;;;;;;;50.13;24.23;;;;;;;;;;12995832;22;20350;-77
2022/11/07 18:55:41;;;;;;;49.38;22.52;;;;;;;;;;12947542;22;19988;-74
2022/11/07 19:00:42;;;;;;;41.22;19.58;;;;;;;;;;12947719;22;20077;-74
2022/11/07 19:05:43;;;;;;;37.40;17.90;;;;;;;;;;12967513;22;19992;-75
2022/11/07 19:10:43;;;;;;;35.40;18.33;;;;;;;;;;12947346;22;20007;-74
2022/11/07 19:15:44;;;;;;;34.38;17.70;;;;;;;;;;12948327;22;20037;-78
2022/11/07 19:20:45;;;;;;;36.50;18.77;;;;;;;;;;12947293;22;20002;-80
2022/11/07 19:25:46;;;;;;;31.25;16.33;;;;;;;;;;12947810;22;20451;-77
2022/11/07 19:30:47;;;;;;;34.83;17.80;;;;;;;;;;12947736;22;19996;-72
2022/11/07 19:35:56;;;;;;;40.28;18.98;;;;;;;;;;12947130;22;19988;-74
2022/11/07 19:40:56;;;;;;;29.63;16.02;;;;;;;;;;12946665;22;20027;-75
2022/11/07 19:45:58;;;;;;;38.57;17.10;;;;;;;;;;12947165;22;20407;-73
2022/11/07 19:50:58;;;;;;;41.05;17.95;;;;;;;;;;12995716;22;20253;-77
2022/11/07 19:56:03;;;;;;;35.90;20.13;;;;;;;;;;12946782;22;19991;-74
2022/11/07 20:01:10;;;;;;;37.50;19.27;;;;;;;;;;12945651;22;20075;-74
2022/11/07 20:06:11;;;;;;;43.95;21.35;;;;;;;;;;12986057;22;19999;-75
2022/11/07 20:11:12;;;;;;;52.90;23.90;;;;;;;;;;12961495;22;20000;-76
2022/11/07 20:16:12;;;;;;;56.50;22.85;;;;;;;;;;12961164;22;19999;-72
2022/11/07 20:21:18;;;;;;;58.70;22.30;;;;;;;;;;12959878;22;19995;-73
2022/11/07 20:26:21;;;;;;;50.17;23.13;;;;;;;;;;12975981;22;19992;-71
2022/11/07 20:31:23;;;;;;;46.22;23.55;;;;;;;;;;12955440;22;20007;-73
2022/11/07 20:36:25;;;;;;;47.00;22.88;;;;;;;;;;12950288;22;20073;-77
2022/11/07 20:41:26;;;;;;;54.22;23.95;;;;;;;;;;12949442;22;20020;-76
2022/11/07 20:46:27;;;;;;;38.97;19.05;;;;;;;;;;12997499;22;20048;-73
2022/11/07 20:51:28;;;;;;;37.85;17.63;;;;;;;;;;12923645;22;20008;-77
2022/11/07 20:56:29;;;;;;;40.45;20.45;;;;;;;;;;12950449;22;20013;-72
2022/11/07 21:01:35;;;;;;;36.60;20.07;;;;;;;;;;12950339;22;20490;-74
2022/11/07 21:06:36;;;;;;;43.80;20.10;;;;;;;;;;12926833;22;20343;-79
2022/11/07 21:11:37;;;;;;;37.47;20.35;;;;;;;;;;12997646;22;20069;-75
2022/11/07 21:16:37;;;;;;;44.88;22.77;;;;;;;;;;12924939;22;20063;-75
2022/11/07 21:21:39;;;;;;;47.30;22.42;;;;;;;;;;12998195;22;20344;-80
2022/11/07 21:26:39;;;;;;;45.47;20.23;;;;;;;;;;12948912;22;20045;-75
2022/11/07 21:31:40;;;;;;;47.90;22.87;;;;;;;;;;12970170;22;20027;-74
2022/11/07 21:36:40;;;;;;;51.22;24.55;;;;;;;;;;12950005;22;20223;-79
2022/11/07 21:41:41;;;;;;;65.25;27.92;;;;;;;;;;12949334;22;20014;-74
2022/11/07 21:46:41;;;;;;;50.45;24.45;;;;;;;;;;12949319;22;20398;-74
2022/11/07 21:51:41;;;;;;;66.65;28.92;;;;;;;;;;12950926;22;20035;-75
2022/11/07 21:56:42;;;;;;;64.07;30.20;;;;;;;;;;12987891;22;20062;-81
2022/11/07 22:01:43;;;;;;;59.65;29.15;;;;;;;;;;12949595;22;20617;-75
2022/11/07 22:06:44;;;;;;;67.22;29.08;;;;;;;;;;12996880;22;19995;-74
2022/11/07 22:11:44;;;;;;;65.75;31.10;;;;;;;;;;12949119;22;20057;-75
2022/11/07 22:16:45;;;;;;;72.43;32.67;;;;;;;;;;12997352;22;20049;-82
2022/11/07 22:21:45;;;;;;;60.95;30.65;;;;;;;;;;12946526;22;20230;-75
2022/11/07 22:26:45;;;;;;;67.80;34.80;;;;;;;;;;12949559;22;20034;-73
2022/11/07 22:31:45;;;;;;;79.33;34.30;;;;;;;;;;12944409;22;20004;-73
2022/11/07 22:36:46;;;;;;;76.07;32.67;;;;;;;;;;12949932;22;19999;-74
2022/11/07 22:41:46;;;;;;;66.00;30.65;;;;;;;;;;12949847;22;20069;-74
2022/11/07 22:46:46;;;;;;;75.30;34.58;;;;;;;;;;12960967;22;19999;-74
2022/11/07 22:51:46;;;;;;;77.00;34.20;;;;;;;;;;13031624;22;19996;-75
2022/11/07 22:56:48;;;;;;;70.70;34.83;;;;;;;;;;12959326;22;20057;-78
2022/11/07 23:01:48;;;;;;;76.63;33.70;;;;;;;;;;12951447;22;19992;-77
2022/11/07 23:06:49;;;;;;;78.88;36.90;;;;;;;;;;12998256;22;19996;-79
2022/11/07 23:11:49;;;;;;;67.80;33.35;;;;;;;;;;12949925;22;19996;-74
2022/11/07 23:16:54;;;;;;;65.60;31.98;;;;;;;;;;12949139;22;20015;-74
2022/11/07 23:21:55;;;;;;;71.80;32.67;;;;;;;;;;12997278;22;19991;-74
2022/11/07 23:26:56;;;;;;;66.05;28.33;;;;;;;;;;12924113;22;20015;-77
2022/11/07 23:31:56;;;;;;;56.42;29.27;;;;;;;;;;12997594;22;20000;-75
2022/11/07 23:36:57;;;;;;;61.22;26.23;;;;;;;;;;12949296;22;19991;-76
2022/11/07 23:41:58;;;;;;;55.95;27.05;;;;;;;;;;12953572;22;20008;-75
2022/11/07 23:52:17;;;;;;;62.97;28.15;;;;;;;;;;13001554;22;20004;-74
2022/11/07 23:57:17;;;;;;;62.20;27.57;;;;;;;;;;12980576;22;20351;-76
